createdAt,value
2016-02-24T00:07:58.461Z,100696
2016-02-24T00:08:11.477Z,100693
2016-02-24T00:08:24.070Z,100693
2016-02-24T00:11:26.187Z,100696
2016-02-24T00:11:38.765Z,100696
2016-02-24T00:11:51.062Z,100699
2016-02-24T00:12:03.518Z,100699
2016-02-24T00:12:16.627Z,100693
2016-02-24T00:12:29.127Z,100708
2016-02-24T00:12:41.674Z,100690
2016-02-24T00:12:54.018Z,100702
2016-02-24T00:13:06.504Z,100693
2016-02-24T00:14:15.977Z,100693
2016-02-24T00:14:28.274Z,100696
2016-02-24T00:14:40.821Z,100693
2016-02-24T00:14:53.461Z,100702
2016-02-24T00:15:05.791Z,100690
2016-02-24T00:15:18.198Z,100687
2016-02-24T00:15:30.823Z,100699
2016-02-24T00:16:40.997Z,100711
2016-02-24T00:16:53.497Z,100702
2016-02-24T00:17:05.875Z,100699
2016-02-24T00:17:18.421Z,100699
2016-02-24T00:17:30.968Z,100705
2016-02-24T00:17:43.296Z,100720
2016-02-24T00:17:55.784Z,100711
2016-02-24T00:18:08.393Z,100711
2016-02-24T00:18:20.799Z,100717
2016-02-24T00:18:33.299Z,100708
2016-02-24T00:18:45.893Z,100705
2016-02-24T00:18:58.239Z,100693
2016-02-24T00:19:10.645Z,100708
2016-02-24T00:19:23.176Z,100702
2016-02-24T00:19:35.661Z,100708
2016-02-24T00:19:48.239Z,100702
2016-02-24T00:20:00.540Z,100711
2016-02-24T00:20:13.040Z,100705
2016-02-24T00:21:23.682Z,100711
2016-02-24T00:21:35.995Z,100702
2016-02-24T00:21:48.417Z,100702
2016-02-24T00:22:01.014Z,100696
2016-02-24T00:22:13.373Z,100708
2016-02-24T00:22:25.732Z,100717
2016-02-24T00:22:38.326Z,100711
2016-02-24T00:22:51.045Z,100708
2016-02-24T00:23:03.344Z,100699
2016-02-24T00:23:15.969Z,100711
2016-02-24T00:23:28.484Z,100705
2016-02-24T00:23:40.797Z,100723
2016-02-24T00:24:45.988Z,100705
2016-02-24T00:24:58.443Z,100695
2016-02-24T00:25:10.756Z,100708
2016-02-24T00:25:23.318Z,100708
2016-02-24T00:25:35.850Z,100708
2016-02-24T00:25:48.178Z,100708
2016-02-24T00:26:00.650Z,100705
2016-02-24T00:26:13.259Z,100695
2016-02-24T00:26:25.634Z,100698
2016-02-24T00:26:38.118Z,100707
2016-02-24T00:26:50.446Z,100701
2016-02-24T00:27:02.981Z,100701
2016-02-24T00:27:15.528Z,100705
2016-02-24T00:27:27.809Z,100702
2016-02-24T00:27:40.293Z,100705
2016-02-24T00:27:52.856Z,100698
2016-02-24T00:28:05.326Z,100714
2016-02-24T00:28:17.733Z,100701
2016-02-24T00:28:30.358Z,100704
2016-02-24T00:28:42.717Z,100698
2016-02-24T00:28:55.076Z,100689
2016-02-24T00:29:07.548Z,100695
2016-02-24T00:29:20.001Z,100695
2016-02-24T00:29:32.611Z,100701
2016-02-24T00:29:44.939Z,100695
2016-02-24T00:29:57.411Z,100698
2016-02-24T00:30:10.067Z,100705
2016-02-24T00:30:22.411Z,100695
2016-02-24T00:30:34.754Z,100711
2016-02-24T00:30:47.379Z,100701
2016-02-24T00:30:59.850Z,100695
2016-02-24T00:39:06.188Z,100722
2016-02-24T00:39:18.595Z,100701
2016-02-24T00:39:31.063Z,100707
2016-02-24T00:39:43.360Z,100701
2016-02-24T00:42:45.978Z,100713
2016-02-24T00:42:58.340Z,100732
2016-02-24T00:43:10.715Z,100707
2016-02-24T00:43:23.340Z,100707
2016-02-24T00:43:35.746Z,100713
2016-02-24T00:43:48.106Z,100704
2016-02-24T00:44:00.702Z,100707
2016-02-24T00:44:13.187Z,100722
2016-02-24T00:44:25.499Z,100725
2016-02-24T00:44:38.046Z,100707
2016-02-24T00:44:50.452Z,100716
2016-02-24T00:45:03.096Z,100719
2016-02-24T00:45:15.596Z,100722
2016-02-24T00:46:26.193Z,100716
2016-02-24T00:46:38.802Z,100716
2016-02-24T00:46:51.193Z,100728
2016-02-24T00:47:56.198Z,100725
2016-02-24T00:48:08.838Z,100728
2016-02-24T00:48:21.260Z,100719
2016-02-24T00:48:33.588Z,100731
2016-02-24T00:48:46.198Z,100725
2016-02-24T00:48:58.701Z,100731
2016-02-24T00:49:11.170Z,100719
2016-02-24T00:49:23.529Z,100707
2016-02-24T00:49:35.904Z,100725
2016-02-24T00:49:48.513Z,100722
2016-02-24T00:50:00.953Z,100728
2016-02-24T00:50:13.375Z,100719
2016-02-24T00:50:26.687Z,100719
2016-02-24T00:50:39.797Z,100710
2016-02-24T00:50:52.093Z,100731
2016-02-24T00:51:04.628Z,100707
2016-02-24T00:51:17.237Z,100719
2016-02-24T00:52:28.411Z,100713
2016-02-24T00:52:40.942Z,100728
2016-02-24T00:52:53.302Z,100722
2016-02-24T00:53:05.931Z,100728
2016-02-24T00:53:18.352Z,100722
2016-02-24T00:53:30.649Z,100734
2016-02-24T00:53:43.212Z,100731
2016-02-24T00:53:55.696Z,100722
2016-02-24T00:54:07.995Z,100731
2016-02-24T00:54:20.589Z,100725
2016-02-24T00:54:33.183Z,100728
2016-02-24T00:54:45.495Z,100722
2016-02-24T00:54:57.967Z,100725
2016-02-24T00:55:10.561Z,100719
2016-02-24T00:55:22.951Z,100719
2016-02-24T00:55:35.436Z,100716
2016-02-24T00:55:47.748Z,100725
2016-02-24T00:56:00.328Z,100729
2016-02-24T00:56:12.844Z,100701
2016-02-24T00:56:25.219Z,100722
2016-02-24T00:56:37.719Z,100716
2016-02-24T00:56:50.281Z,100719
2016-02-24T00:57:02.581Z,100719
2016-02-24T00:57:15.034Z,100725
2016-02-24T00:57:27.628Z,100713
2016-02-24T00:57:39.987Z,100719
2016-02-24T00:57:52.503Z,100707
2016-02-24T00:58:05.114Z,100732
2016-02-24T00:58:17.489Z,100725
2016-02-24T00:58:29.802Z,100744
2016-02-24T00:58:43.068Z,100729
2016-02-24T00:58:55.677Z,100735
2016-02-24T00:59:08.009Z,100744
2016-02-24T00:59:20.618Z,100738
2016-02-24T00:59:33.072Z,100732
2016-02-24T00:59:45.384Z,100726
2016-02-24T00:59:57.855Z,100726
2016-02-24T01:00:10.495Z,100723
2016-02-24T01:00:22.964Z,100726
2016-02-24T01:00:35.355Z,100726
2016-02-24T01:00:47.995Z,100710
2016-02-24T01:01:00.529Z,100722
2016-02-24T01:01:13.060Z,100731
2016-02-24T01:08:16.194Z,100719
2016-02-24T01:09:23.509Z,100722
2016-02-24T01:09:35.884Z,100719
2016-02-24T01:09:48.509Z,100728
2016-02-24T01:12:50.954Z,100728
2016-02-24T01:13:03.410Z,100734
2016-02-24T01:13:16.004Z,100725
2016-02-24T01:13:28.348Z,100734
2016-02-24T01:13:40.863Z,100728
2016-02-24T01:14:46.131Z,100722
2016-02-24T01:14:58.651Z,100731
2016-02-24T01:15:11.198Z,100722
2016-02-24T01:15:23.494Z,100728
2016-02-24T01:15:35.963Z,100737
2016-02-24T01:15:48.526Z,100728
2016-02-24T01:16:00.840Z,100731
2016-02-24T01:16:13.262Z,100728
2016-02-24T01:16:25.887Z,100722
2016-02-24T01:17:33.467Z,100728
2016-02-24T01:17:45.936Z,100737
2016-02-24T01:17:58.345Z,100728
2016-02-24T01:19:03.754Z,100731
2016-02-24T01:19:16.223Z,100728
2016-02-24T01:19:28.520Z,100731
2016-02-24T01:19:41.067Z,100725
2016-02-24T01:19:53.754Z,100731
2016-02-24T01:20:06.086Z,100734
2016-02-24T01:20:18.476Z,100734
2016-02-24T01:20:31.070Z,100731
2016-02-24T01:20:44.601Z,100725
2016-02-24T01:20:57.072Z,100713
2016-02-24T01:21:09.900Z,100722
2016-02-24T01:21:22.994Z,100731
2016-02-24T01:21:35.588Z,100719
2016-02-24T01:21:47.900Z,100725
2016-02-24T01:22:00.403Z,100725
2016-02-24T01:22:12.997Z,100731
2016-02-24T01:22:25.325Z,100728
2016-02-24T01:23:31.125Z,100743
2016-02-24T01:23:43.719Z,100731
2016-02-24T01:23:56.125Z,100725
2016-02-24T01:24:08.628Z,100731
2016-02-24T01:24:21.190Z,100734
2016-02-24T01:24:33.612Z,100734
2016-02-24T01:24:46.003Z,100725
2016-02-24T01:24:58.474Z,100743
2016-02-24T01:25:10.942Z,100734
2016-02-24T01:25:24.067Z,100731
2016-02-24T01:25:36.427Z,100737
2016-02-24T01:25:48.833Z,100722
2016-02-24T01:26:01.461Z,100734
2016-02-24T01:26:13.867Z,100728
2016-02-24T01:26:26.227Z,100728
2016-02-24T01:26:38.820Z,100719
2016-02-24T01:26:51.242Z,100731
2016-02-24T01:27:03.900Z,100728
2016-02-24T01:27:16.510Z,100731
2016-02-24T01:27:28.963Z,100731
2016-02-24T01:27:41.510Z,100722
2016-02-24T01:27:53.885Z,100709
2016-02-24T01:28:06.233Z,100728
2016-02-24T01:28:19.451Z,100740
2016-02-24T01:28:31.873Z,100728
2016-02-24T01:28:44.654Z,100737
2016-02-24T01:28:57.422Z,100731
2016-02-24T01:29:10.047Z,100737
2016-02-24T01:29:22.406Z,100725
2016-02-24T01:29:34.922Z,100722
2016-02-24T01:29:47.406Z,100734
2016-02-24T01:29:59.769Z,100737
2016-02-24T01:30:12.269Z,100725
2016-02-24T01:30:24.613Z,100731
2016-02-24T01:30:37.253Z,100728
2016-02-24T01:30:49.800Z,100728
2016-02-24T01:31:02.099Z,100731
2016-02-24T01:31:14.661Z,100731
2016-02-24T01:31:27.255Z,100731
2016-02-24T01:31:39.646Z,100724
2016-02-24T01:31:52.130Z,100734
2016-02-24T01:32:04.758Z,100731
2016-02-24T01:32:17.071Z,100737
2016-02-24T01:39:26.137Z,100724
2016-02-24T01:39:38.433Z,100740
2016-02-24T01:39:50.902Z,100740
2016-02-24T01:40:03.546Z,100734
2016-02-24T01:43:11.053Z,100743
2016-02-24T01:43:23.647Z,100734
2016-02-24T01:43:36.600Z,100740
2016-02-24T01:43:48.912Z,100740
2016-02-24T01:45:01.231Z,100746
2016-02-24T01:45:14.121Z,100734
2016-02-24T01:45:26.465Z,100743
2016-02-24T01:45:39.043Z,100731
2016-02-24T01:45:52.043Z,100737
2016-02-24T01:46:04.498Z,100743
2016-02-24T01:46:16.936Z,100734
2016-02-24T01:46:29.498Z,100743
2016-02-24T01:46:42.092Z,100737
2016-02-24T01:46:55.170Z,100746
2016-02-24T01:48:03.317Z,100740
2016-02-24T01:48:15.864Z,100743
2016-02-24T01:48:28.129Z,100749
2016-02-24T01:48:40.239Z,100749
2016-02-24T01:48:52.551Z,100749
2016-02-24T01:49:04.882Z,100740
2016-02-24T01:49:17.492Z,100743
2016-02-24T01:49:29.804Z,100731
2016-02-24T01:49:42.085Z,100758
2016-02-24T01:49:54.476Z,100749
2016-02-24T01:50:06.775Z,100743
2016-02-24T01:50:19.431Z,100749
2016-02-24T01:50:32.259Z,100746
2016-02-24T01:50:45.072Z,100743
2016-02-24T01:50:57.294Z,100743
2016-02-24T01:51:09.559Z,100743
2016-02-24T01:51:21.934Z,100743
2016-02-24T01:51:34.481Z,100746
2016-02-24T01:51:46.637Z,100752
2016-02-24T01:51:59.062Z,100740
2016-02-24T01:52:11.218Z,100746
2016-02-24T01:52:24.093Z,100749
2016-02-24T01:52:36.250Z,100743
2016-02-24T01:52:48.547Z,100740
2016-02-24T01:53:01.018Z,100743
2016-02-24T01:53:13.128Z,100749
2016-02-24T01:53:25.362Z,100746
2016-02-24T01:53:38.393Z,100737
2016-02-24T01:53:51.346Z,100755
2016-02-24T01:54:03.537Z,100743
2016-02-24T01:54:15.865Z,100743
2016-02-24T01:54:28.084Z,100743
2016-02-24T01:54:40.193Z,100749
2016-02-24T01:54:52.474Z,100758
2016-02-24T01:55:04.711Z,100746
2016-02-24T01:55:17.086Z,100746
2016-02-24T01:55:29.195Z,100746
2016-02-24T01:55:41.367Z,100752
2016-02-24T01:55:53.805Z,100743
2016-02-24T01:56:06.400Z,100737
2016-02-24T01:56:18.463Z,100752
2016-02-24T01:56:30.838Z,100752
2016-02-24T01:56:43.057Z,100755
2016-02-24T01:56:55.135Z,100752
2016-02-24T01:57:07.436Z,100743
2016-02-24T01:57:19.764Z,100740
2016-02-24T01:57:32.014Z,100743
2016-02-24T01:57:44.170Z,100725
2016-02-24T01:57:56.279Z,100740
2016-02-24T01:58:08.625Z,100752
2016-02-24T01:58:20.875Z,100746
2016-02-24T01:58:33.063Z,100737
2016-02-24T01:58:46.000Z,100743
2016-02-24T01:58:58.316Z,100746
2016-02-24T01:59:10.425Z,100737
2016-02-24T01:59:22.644Z,100761
2016-02-24T01:59:35.019Z,100758
2016-02-24T01:59:47.409Z,100752
2016-02-24T01:59:59.615Z,100749
2016-02-24T02:00:11.834Z,100737
2016-02-24T02:00:24.131Z,100755
2016-02-24T02:00:36.444Z,100746
2016-02-24T02:00:48.537Z,100749
2016-02-24T02:01:00.992Z,100743
2016-02-24T02:01:13.352Z,100737
2016-02-24T02:01:25.664Z,100743
2016-02-24T02:01:37.899Z,100752
2016-02-24T02:01:50.242Z,100749
2016-02-24T02:02:02.402Z,100758
2016-02-24T02:02:14.558Z,100749
2016-02-24T02:02:26.995Z,100755
2016-02-24T02:02:39.245Z,100746
2016-02-24T02:02:51.574Z,100752
2016-02-24T02:03:04.388Z,100764
2016-02-24T02:03:16.591Z,100758
2016-02-24T02:03:28.935Z,100758
2016-02-24T02:03:41.201Z,100749
2016-02-24T02:03:53.357Z,100743
2016-02-24T02:04:05.782Z,100746
2016-02-24T02:04:17.954Z,100749
2016-02-24T02:04:30.079Z,100761
2016-02-24T02:04:43.047Z,100755
2016-02-24T02:18:45.851Z,100755
2016-02-24T02:18:57.932Z,100755
2016-02-24T02:19:10.198Z,100761
2016-02-24T02:19:22.635Z,100776
2016-02-24T02:19:34.713Z,100764
2016-02-24T02:19:46.854Z,100758
2016-02-24T02:19:59.231Z,100761
2016-02-24T02:20:11.450Z,100764
2016-02-24T02:20:23.575Z,100770
2016-02-24T02:20:35.965Z,100752
2016-02-24T02:20:48.262Z,100761
2016-02-24T02:21:00.421Z,100758
2016-02-24T02:21:12.781Z,100746
2016-02-24T02:21:24.968Z,100767
2016-02-24T02:21:37.359Z,100758
2016-02-24T02:21:49.875Z,100764
2016-02-24T02:22:01.924Z,100758
2016-02-24T02:22:14.299Z,100764
2016-02-24T02:22:26.518Z,100755
2016-02-24T02:22:38.596Z,100764
2016-02-24T02:22:50.893Z,100770
2016-02-24T02:23:03.192Z,100764
2016-02-24T02:23:15.426Z,100764
2016-02-24T02:23:27.708Z,100761
2016-02-24T02:23:40.083Z,100767
2016-02-24T02:23:52.208Z,100751
2016-02-24T02:24:04.445Z,100758
2016-02-24T02:24:16.554Z,100758
2016-02-24T02:24:28.851Z,100754
2016-02-24T02:24:41.211Z,100764
2016-02-24T02:24:53.836Z,100758
2016-02-24T02:25:06.088Z,100767
2016-02-24T02:25:18.541Z,100767
2016-02-24T02:25:30.572Z,100764
2016-02-24T02:25:42.838Z,100767
2016-02-24T02:25:55.197Z,100761
2016-02-24T02:26:08.045Z,100755
2016-02-24T02:26:20.201Z,100758
2016-02-24T02:26:32.451Z,100779
2016-02-24T02:26:44.685Z,100767
2016-02-24T02:26:57.014Z,100764
2016-02-24T02:27:09.172Z,100776
2016-02-24T02:27:21.391Z,100764
2016-02-24T02:27:33.828Z,100758
2016-02-24T02:27:46.047Z,100761
2016-02-24T02:27:58.175Z,100764
2016-02-24T02:28:10.565Z,100761
2016-02-24T02:28:22.784Z,100767
2016-02-24T02:28:34.894Z,100761
2016-02-24T02:28:47.284Z,100758
2016-02-24T02:28:59.615Z,100767
2016-02-24T02:29:11.897Z,100761
2016-02-24T02:29:24.022Z,100767
2016-02-24T02:29:36.147Z,100776
2016-02-24T02:29:48.475Z,100755
2016-02-24T02:30:00.696Z,100755
2016-02-24T02:30:12.806Z,100764
2016-02-24T02:30:25.196Z,100761
2016-02-24T02:30:37.493Z,100770
2016-02-24T02:30:50.384Z,100776
2016-02-24T02:31:02.714Z,100770
2016-02-24T02:31:15.011Z,100767
2016-02-24T02:31:27.198Z,100767
2016-02-24T02:31:39.573Z,100776
2016-02-24T02:31:51.730Z,100770
2016-02-24T02:32:04.123Z,100770
2016-02-24T02:32:16.373Z,100745
2016-02-24T02:32:28.483Z,100767
2016-02-24T02:32:40.858Z,100758
2016-02-24T02:32:53.186Z,100773
2016-02-24T02:33:05.408Z,100770
2016-02-24T02:33:17.658Z,100755
2016-02-24T02:33:30.017Z,100752
2016-02-24T02:33:42.126Z,100761
2016-02-24T02:33:54.329Z,100767
2016-02-24T02:34:06.738Z,100761
2016-02-24T02:34:18.988Z,100758
2016-02-24T02:34:31.269Z,100764
2016-02-24T02:34:43.394Z,100764
2016-02-24T02:34:55.675Z,100767
2016-02-24T02:49:01.075Z,100763
2016-02-24T02:49:13.325Z,100766
2016-02-24T02:50:20.906Z,100772
2016-02-24T02:50:33.953Z,100766
2016-02-24T02:50:46.374Z,100760
2016-02-24T02:50:58.486Z,100751
2016-02-24T02:51:10.798Z,100770
2016-02-24T02:51:23.111Z,100767
2016-02-24T02:51:35.548Z,100757
2016-02-24T02:51:48.314Z,100770
2016-02-24T02:52:00.709Z,100770
2016-02-24T02:52:13.068Z,100770
2016-02-24T02:52:25.412Z,100760
2016-02-24T02:52:37.599Z,100764
2016-02-24T02:52:49.959Z,100767
2016-02-24T02:53:02.179Z,100761
2016-02-24T02:53:14.976Z,100761
2016-02-24T02:53:27.304Z,100785
2016-02-24T02:53:39.664Z,100767
2016-02-24T02:53:51.773Z,100770
2016-02-24T02:54:04.025Z,100770
2016-02-24T02:54:16.400Z,100770
2016-02-24T02:54:28.603Z,100776
2016-02-24T02:54:45.041Z,100779
2016-02-24T02:54:57.447Z,100776
2016-02-24T02:55:09.717Z,100782
2016-02-24T02:55:22.076Z,100770
2016-02-24T02:55:34.451Z,100773
2016-02-24T02:55:46.670Z,100782
2016-02-24T02:55:58.812Z,100782
2016-02-24T02:56:11.109Z,100773
2016-02-24T02:56:23.375Z,100782
2016-02-24T02:56:35.656Z,100776
2016-02-24T02:56:47.875Z,100764
2016-02-24T02:57:00.050Z,100776
2016-02-24T02:57:12.472Z,100770
2016-02-24T02:57:24.643Z,100761
2016-02-24T02:57:36.800Z,100776
2016-02-24T02:57:49.159Z,100767
2016-02-24T02:58:01.412Z,100770
2016-02-24T02:58:13.568Z,100782
2016-02-24T02:58:25.881Z,100764
2016-02-24T02:58:38.443Z,100764
2016-02-24T02:58:50.568Z,100776
2016-02-24T02:59:02.773Z,100773
2016-02-24T02:59:14.992Z,100773
2016-02-24T02:59:27.414Z,100773
2016-02-24T02:59:39.680Z,100782
2016-02-24T02:59:51.805Z,100779
2016-02-24T03:00:04.197Z,100770
2016-02-24T03:00:16.775Z,100760
2016-02-24T03:00:28.869Z,100773
2016-02-24T03:00:41.182Z,100773
2016-02-24T03:00:53.572Z,100764
2016-02-24T03:01:05.732Z,100770
2016-02-24T03:01:17.966Z,100776
2016-02-24T03:01:30.310Z,100773
2016-02-24T03:01:42.513Z,100785
2016-02-24T03:01:54.872Z,100770
2016-02-24T03:02:06.969Z,100773
2016-02-24T03:03:15.722Z,100767
2016-02-24T03:03:28.066Z,100776
2016-02-24T03:03:40.175Z,100782
2016-02-24T03:03:52.409Z,100776
2016-02-24T03:04:04.818Z,100773
2016-02-24T03:04:16.943Z,100769
2016-02-24T03:04:29.161Z,100760
2016-02-24T03:04:41.536Z,100757
2016-02-24T03:04:53.708Z,100766
2016-02-24T03:05:05.961Z,100773
2016-02-24T03:05:18.227Z,100779
2016-02-24T03:05:30.539Z,100776
2016-02-24T03:05:42.930Z,100782
2016-02-24T03:05:55.024Z,100776
2016-02-24T03:06:07.261Z,100779
2016-02-24T03:06:19.605Z,100773
2016-02-24T03:06:31.855Z,100776
2016-02-24T03:06:44.105Z,100785
2016-02-24T03:06:56.371Z,100772
2016-02-24T03:07:08.591Z,100766
2016-02-24T03:19:18.391Z,100776
2016-02-24T03:19:30.688Z,100779
2016-02-24T03:20:38.424Z,100779
2016-02-24T03:20:50.721Z,100785
2016-02-24T03:21:03.069Z,100779
2016-02-24T03:21:15.225Z,100770
2016-02-24T03:21:27.569Z,100785
2016-02-24T03:21:40.022Z,100779
2016-02-24T03:22:48.352Z,100782
2016-02-24T03:23:00.589Z,100779
2016-02-24T03:23:13.121Z,100779
2016-02-24T03:23:25.246Z,100779
2016-02-24T03:23:37.449Z,100794
2016-02-24T03:23:49.636Z,100788
2016-02-24T03:24:01.966Z,100782
2016-02-24T03:24:14.404Z,100766
2016-02-24T03:24:26.498Z,100785
2016-02-24T03:24:38.763Z,100782
2016-02-24T03:24:51.185Z,100760
2016-02-24T03:25:03.391Z,100775
2016-02-24T03:25:15.579Z,100782
2016-02-24T03:25:27.954Z,100769
2016-02-24T03:25:40.173Z,100784
2016-02-24T03:25:52.344Z,100781
2016-02-24T03:26:04.831Z,100785
2016-02-24T03:26:17.065Z,100791
2016-02-24T03:26:29.456Z,100791
2016-02-24T03:26:41.846Z,100782
2016-02-24T03:26:54.096Z,100775
2016-02-24T03:27:06.382Z,100785
2016-02-24T03:27:18.632Z,100788
2016-02-24T03:27:30.835Z,100784
2016-02-24T03:27:43.210Z,100778
2016-02-24T03:27:55.507Z,100775
2016-02-24T03:28:07.759Z,100794
2016-02-24T03:28:20.134Z,100775
2016-02-24T03:28:32.477Z,100788
2016-02-24T03:28:45.024Z,100797
2016-02-24T03:28:57.368Z,100782
2016-02-24T03:29:09.777Z,100778
2016-02-24T03:29:21.902Z,100782
2016-02-24T03:29:35.059Z,100787
2016-02-24T03:29:47.387Z,100797
2016-02-24T03:29:59.467Z,100788
2016-02-24T03:30:11.732Z,100775
2016-02-24T03:30:24.123Z,100775
2016-02-24T03:30:36.373Z,100796
2016-02-24T03:30:48.561Z,100778
2016-02-24T03:31:01.064Z,100790
2016-02-24T03:31:13.220Z,100784
2016-02-24T03:31:25.329Z,100769
2016-02-24T03:31:37.689Z,100787
2016-02-24T03:31:49.892Z,100787
2016-02-24T03:32:02.270Z,100793
2016-02-24T03:32:14.426Z,100775
2016-02-24T03:32:26.598Z,100787
2016-02-24T03:32:39.082Z,100781
2016-02-24T03:32:51.270Z,100793
2016-02-24T03:33:03.428Z,100790
2016-02-24T03:33:15.897Z,100778
2016-02-24T03:33:28.162Z,100790
2016-02-24T03:33:40.350Z,100778
2016-02-24T03:33:52.631Z,100793
2016-02-24T03:34:04.947Z,100793
2016-02-24T03:34:17.165Z,100790
2016-02-24T03:34:29.400Z,100793
2016-02-24T03:34:41.572Z,100787
2016-02-24T03:34:53.978Z,100790
2016-02-24T03:35:06.278Z,100796
2016-02-24T03:35:18.403Z,100804
2016-02-24T03:35:30.715Z,100796
2016-02-24T03:35:43.012Z,100787
2016-02-24T03:35:55.168Z,100784
2016-02-24T03:36:07.452Z,100801
2016-02-24T03:36:19.889Z,100790
2016-02-24T03:36:31.983Z,100796
2016-02-24T03:36:44.248Z,100784
2016-02-24T03:36:56.498Z,100784
2016-02-24T03:38:06.208Z,100790
2016-02-24T03:38:19.942Z,100804
2016-02-24T03:49:28.346Z,100807
2016-02-24T03:49:40.455Z,100798
2016-02-24T03:50:48.360Z,100816
2016-02-24T03:51:00.673Z,100810
2016-02-24T03:52:06.019Z,100801
2016-02-24T03:52:18.347Z,100804
2016-02-24T03:52:30.675Z,100804
2016-02-24T03:52:43.738Z,100810
2016-02-24T03:53:56.035Z,100807
2016-02-24T03:54:08.271Z,100810
2016-02-24T03:54:20.630Z,100807
2016-02-24T03:54:32.802Z,100810
2016-02-24T03:54:45.005Z,100807
2016-02-24T03:54:57.443Z,100816
2016-02-24T03:55:09.631Z,100804
2016-02-24T03:55:21.709Z,100798
2016-02-24T03:55:34.084Z,100801
2016-02-24T03:55:46.397Z,100804
2016-02-24T03:55:58.506Z,100798
2016-02-24T03:56:10.930Z,100801
2016-02-24T03:56:23.086Z,100801
2016-02-24T03:56:35.430Z,100807
2016-02-24T03:56:47.665Z,100804
2016-02-24T03:56:59.777Z,100813
2016-02-24T03:57:12.168Z,100813
2016-02-24T03:57:24.402Z,100801
2016-02-24T03:57:36.543Z,100796
2016-02-24T03:57:48.871Z,100810
2016-02-24T03:58:01.200Z,100813
2016-02-24T03:58:13.325Z,100816
2016-02-24T03:58:25.575Z,100813
2016-02-24T03:58:37.919Z,100804
2016-02-24T03:58:50.809Z,100801
2016-02-24T03:59:03.092Z,100796
2016-02-24T03:59:15.249Z,100813
2016-02-24T03:59:27.577Z,100798
2016-02-24T03:59:39.858Z,100810
2016-02-24T03:59:51.952Z,100796
2016-02-24T04:00:04.204Z,100807
2016-02-24T04:00:16.579Z,100801
2016-02-24T04:00:28.657Z,100807
2016-02-24T04:00:40.891Z,100798
2016-02-24T04:00:53.219Z,100804
2016-02-24T04:01:05.379Z,100807
2016-02-24T04:01:17.504Z,100801
2016-02-24T04:01:29.816Z,100816
2016-02-24T04:01:42.144Z,100825
2016-02-24T04:01:54.551Z,100804
2016-02-24T04:02:06.615Z,100813
2016-02-24T04:02:18.803Z,100807
2016-02-24T04:02:31.178Z,100816
2016-02-24T04:02:43.303Z,100813
2016-02-24T04:02:55.490Z,100810
2016-02-24T04:03:08.149Z,100825
2016-02-24T04:03:20.431Z,100796
2016-02-24T04:03:32.509Z,100807
2016-02-24T04:03:44.915Z,100804
2016-02-24T04:03:57.165Z,100804
2016-02-24T04:04:09.354Z,100810
2016-02-24T04:04:21.558Z,100813
2016-02-24T04:04:33.870Z,100801
2016-02-24T04:04:45.948Z,100819
2016-02-24T04:04:58.312Z,100810
2016-02-24T04:05:10.707Z,100807
2016-02-24T04:05:22.848Z,100801
2016-02-24T04:05:35.113Z,100804
2016-02-24T04:05:47.504Z,100807
2016-02-24T04:05:59.631Z,100810
2016-02-24T04:06:11.772Z,100810
2016-02-24T04:06:24.100Z,100798
2016-02-24T04:06:36.334Z,100813
2016-02-24T04:06:49.147Z,100810
2016-02-24T04:07:01.259Z,100804
2016-02-24T04:07:13.431Z,100796
2016-02-24T04:07:25.759Z,100807
2016-02-24T04:07:38.165Z,100801
2016-02-24T04:07:50.337Z,100804
2016-02-24T04:08:02.746Z,100804
2016-02-24T04:08:16.278Z,100801
2016-02-24T04:08:28.371Z,100804
2016-02-24T04:08:40.746Z,100811
2016-02-24T04:20:36.012Z,100814
2016-02-24T04:20:48.262Z,100808
2016-02-24T04:21:55.641Z,100811
2016-02-24T04:22:07.799Z,100808
2016-02-24T04:23:13.474Z,100811
2016-02-24T04:23:25.802Z,100808
2016-02-24T04:23:37.911Z,100805
2016-02-24T04:23:50.177Z,100805
2016-02-24T04:24:53.352Z,100814
2016-02-24T04:25:05.432Z,100805
2016-02-24T04:25:17.682Z,100808
2016-02-24T04:25:30.073Z,100799
2016-02-24T04:25:42.807Z,100799
2016-02-24T04:25:55.026Z,100808
2016-02-24T04:26:07.122Z,100817
2016-02-24T04:26:19.451Z,100817
2016-02-24T04:26:31.747Z,100814
2016-02-24T04:26:43.919Z,100814
2016-02-24T04:26:56.169Z,100808
2016-02-24T04:27:08.532Z,100817
2016-02-24T04:27:20.625Z,100817
2016-02-24T04:27:32.797Z,100814
2016-02-24T04:27:45.219Z,100805
2016-02-24T04:27:57.313Z,100808
2016-02-24T04:28:09.597Z,100817
2016-02-24T04:28:22.066Z,100808
2016-02-24T04:28:34.269Z,100814
2016-02-24T04:28:46.378Z,100817
2016-02-24T04:28:58.707Z,100820
2016-02-24T04:29:10.974Z,100802
2016-02-24T04:29:23.084Z,100802
2016-02-24T04:29:35.443Z,100808
2016-02-24T04:29:47.724Z,100808
2016-02-24T04:29:59.804Z,100808
2016-02-24T04:30:12.054Z,100811
2016-02-24T04:30:24.382Z,100802
2016-02-24T04:30:36.461Z,100811
2016-02-24T04:30:48.679Z,100811
2016-02-24T04:31:00.980Z,100811
2016-02-24T04:31:13.293Z,100808
2016-02-24T04:31:25.590Z,100808
2016-02-24T04:31:38.355Z,100808
2016-02-24T04:31:50.590Z,100808
2016-02-24T04:32:02.982Z,100802
2016-02-24T04:32:15.045Z,100808
2016-02-24T04:32:27.263Z,100805
2016-02-24T04:32:39.670Z,100817
2016-02-24T04:32:51.826Z,100817
2016-02-24T04:33:04.063Z,100811
2016-02-24T04:33:16.454Z,100808
2016-02-24T04:33:28.673Z,100814
2016-02-24T04:33:40.985Z,100811
2016-02-24T04:33:53.063Z,100799
2016-02-24T04:34:05.285Z,100811
2016-02-24T04:34:17.598Z,100811
2016-02-24T04:34:29.754Z,100811
2016-02-24T04:34:41.910Z,100817
2016-02-24T04:34:54.394Z,100804
2016-02-24T04:35:06.584Z,100810
2016-02-24T04:35:18.756Z,100813
2016-02-24T04:35:31.115Z,100807
2016-02-24T04:35:43.318Z,100816
2016-02-24T04:35:55.459Z,100801
2016-02-24T04:36:07.758Z,100801
2016-02-24T04:36:19.945Z,100810
2016-02-24T04:36:32.305Z,100810
2016-02-24T04:36:44.586Z,100807
2016-02-24T04:36:56.852Z,100813
2016-02-24T04:37:09.231Z,100813
2016-02-24T04:37:21.449Z,100798
2016-02-24T04:37:33.543Z,100813
2016-02-24T04:37:45.856Z,100813
2016-02-24T04:37:58.090Z,100816
2016-02-24T04:38:11.779Z,100819
2016-02-24T04:38:24.139Z,100813
2016-02-24T04:38:36.451Z,100813
2016-02-24T04:38:48.529Z,100813
2016-02-24T04:39:01.376Z,100816
2016-02-24T04:39:13.829Z,100813
2016-02-24T04:39:25.986Z,100819
2016-02-24T04:50:30.890Z,100828
2016-02-24T04:51:33.361Z,100819
2016-02-24T04:52:40.911Z,100816
2016-02-24T04:52:53.005Z,100804
2016-02-24T04:53:58.355Z,100819
2016-02-24T04:54:10.796Z,100819
2016-02-24T04:54:23.015Z,100813